createdAt,value
2022-12-01T00:00:06.492Z,100894.63
2022-12-01T00:00:38.282Z,100891.00
2022-12-01T00:01:10.116Z,100889.16
2022-12-01T00:01:41.683Z,100895.88
2022-12-01T00:02:13.172Z,100894.88
2022-12-01T00:02:44.827Z,100892.22
2022-12-01T00:03:16.392Z,100893.94
2022-12-01T00:03:47.970Z,100894.53
2022-12-01T00:04:19.408Z,100895.75
2022-12-01T00:04:50.884Z,100889.53
2022-12-01T00:05:22.602Z,100887.00
2022-12-01T00:06:07.012Z,100893.31
2022-12-01T00:06:41.925Z,100892.56
2022-12-01T00:07:13.373Z,100891.09
2022-12-01T00:07:44.950Z,100894.38
2022-12-01T00:08:16.460Z,100895.34
2022-12-01T00:08:48.490Z,100899.00
2022-12-01T00:09:20.501Z,100895.34
2022-12-01T00:09:52.143Z,100891.22
2022-12-01T00:10:23.663Z,100889.06
2022-12-01T00:10:55.275Z,100888.09
2022-12-01T00:11:26.690Z,100890.88
2022-12-01T00:11:58.211Z,100891.50
2022-12-01T00:12:29.920Z,100892.31
2022-12-01T00:13:02.093Z,100887.88
2022-12-01T00:13:34.008Z,100887.88
2022-12-01T00:14:05.496Z,100892.31
2022-12-01T00:14:36.937Z,100892.31
2022-12-01T00:15:08.449Z,100888.09
2022-12-01T00:15:40.001Z,100893.53
2022-12-01T00:16:12.092Z,100889.91
2022-12-01T00:16:43.709Z,100890.00
2022-12-01T00:17:15.212Z,100892.81
2022-12-01T00:17:47.001Z,100886.50
2022-12-01T00:18:18.474Z,100892.69
2022-12-01T00:18:50.491Z,100893.53
2022-12-01T00:19:24.667Z,100887.34
2022-12-01T00:19:56.285Z,100888.31
2022-12-01T00:20:27.908Z,100890.00
2022-12-01T00:20:59.419Z,100892.44
2022-12-01T00:21:30.852Z,100894.38
2022-12-01T00:22:02.369Z,100888.09
2022-12-01T00:22:33.830Z,100894.28
2022-12-01T00:23:05.261Z,100886.38
2022-12-01T00:23:36.748Z,100891.94
2022-12-01T00:24:09.058Z,100893.66
2022-12-01T00:24:40.484Z,100888.31
2022-12-01T00:25:12.486Z,100887.50
2022-12-01T00:25:43.963Z,100893.44
2022-12-01T00:26:15.676Z,100881.06
2022-12-01T00:26:47.189Z,100888.09
2022-12-01T00:27:18.591Z,100889.06
2022-12-01T00:27:50.537Z,100889.16
2022-12-01T00:28:22.019Z,100888.09
2022-12-01T00:28:56.028Z,100886.28
2022-12-01T00:29:27.530Z,100886.38
2022-12-01T00:29:58.994Z,100886.63
2022-12-01T00:30:30.435Z,100885.06
2022-12-01T00:31:01.859Z,100884.81
2022-12-01T00:31:33.421Z,100884.69
2022-12-01T00:32:05.287Z,100881.06
2022-12-01T00:32:36.792Z,100882.78
2022-12-01T00:33:08.291Z,100887.00
2022-12-01T00:33:39.724Z,100890.75
2022-12-01T00:34:20.484Z,100891.72
2022-12-01T00:34:51.923Z,100886.38
2022-12-01T00:35:23.394Z,100884.06
2022-12-01T00:35:58.178Z,100881.28
2022-12-01T00:36:29.706Z,100880.94
2022-12-01T00:37:01.184Z,100887.00
2022-12-01T00:37:33.129Z,100885.47
2022-12-01T00:38:04.649Z,100880.13
2022-12-01T00:38:36.215Z,100882.44
2022-12-01T00:39:07.669Z,100882.44
2022-12-01T00:39:39.233Z,100885.47
2022-12-01T00:40:11.069Z,100878.78
2022-12-01T00:40:42.522Z,100884.34
2022-12-01T00:41:14.066Z,100881.44
2022-12-01T00:41:45.513Z,100882.03
2022-12-01T00:42:17.160Z,100887.16
2022-12-01T00:42:48.666Z,100879.25
2022-12-01T00:43:20.164Z,100881.81
2022-12-01T00:43:51.639Z,100881.81
2022-12-01T00:44:23.149Z,100882.56
2022-12-01T00:44:54.634Z,100889.09
2022-12-01T00:45:26.073Z,100882.91
2022-12-01T00:45:57.625Z,100884.81
2022-12-01T00:46:29.299Z,100883.25
2022-12-01T00:47:00.874Z,100893.94
2022-12-01T00:47:32.356Z,100890.31
2022-12-01T00:48:03.995Z,100885.31
2022-12-01T00:48:35.453Z,100886.16
2022-12-01T00:49:06.933Z,100887.13
2022-12-01T00:49:38.353Z,100888.72
2022-12-01T00:50:09.955Z,100886.28
2022-12-01T00:50:41.349Z,100888.56
2022-12-01T00:51:12.815Z,100893.88
2022-12-01T00:51:44.242Z,100890.28
2022-12-01T00:52:16.224Z,100888.31
2022-12-01T00:52:47.674Z,100892.94
2022-12-01T00:53:19.170Z,100889.16
2022-12-01T00:53:50.612Z,100894.72
2022-12-01T00:54:22.051Z,100887.50
2022-12-01T00:54:53.544Z,100892.81
2022-12-01T00:55:24.978Z,100898.38
2022-12-01T00:55:56.418Z,100888.94
2022-12-01T00:56:27.844Z,100898.31
2022-12-01T00:56:59.502Z,100886.53
2022-12-01T00:57:30.919Z,100889.31
2022-12-01T00:58:02.428Z,100898.41
2022-12-01T00:58:33.888Z,100889.78
2022-12-01T00:59:05.310Z,100897.31
2022-12-01T00:59:36.829Z,100892.97
2022-12-01T01:00:08.680Z,100892.22
2022-12-01T01:00:40.142Z,100903.09
2022-12-01T01:01:11.623Z,100899.84
2022-12-01T01:01:43.168Z,100898.28
2022-12-01T01:02:14.753Z,100898.88
2022-12-01T01:02:46.298Z,100899.72
2022-12-01T01:03:17.812Z,100897.88
2022-12-01T01:03:49.274Z,100899.72
2022-12-01T01:04:20.809Z,100898.75
2022-12-01T01:04:52.256Z,100902.88
2022-12-01T01:05:23.695Z,100897.44
2022-12-01T01:05:55.202Z,100903.88
2022-12-01T01:06:26.737Z,100899.72
2022-12-01T01:06:58.242Z,100904.22
2022-12-01T01:07:29.922Z,100897.28
2022-12-01T01:08:01.538Z,100900.94
2022-12-01T01:08:33.057Z,100901.91
2022-12-01T01:09:04.487Z,100905.09
2022-12-01T01:09:36.000Z,100907.97
2022-12-01T01:10:07.510Z,100908.56
2022-12-01T01:10:41.453Z,100905.06
2022-12-01T01:11:12.973Z,100910.50
2022-12-01T01:11:44.388Z,100907.00
2022-12-01T01:12:15.904Z,100902.63
2022-12-01T01:12:47.343Z,100907.94
2022-12-01T01:13:18.790Z,100901.44
2022-12-01T01:13:50.244Z,100913.03
2022-12-01T01:14:21.865Z,100901.53
2022-12-01T01:14:53.232Z,100897.88
2022-12-01T01:15:24.675Z,100902.50
2022-12-01T01:16:02.154Z,100905.16
2022-12-01T01:16:33.825Z,100903.47
2022-12-01T01:17:05.409Z,100906.25
2022-12-01T01:17:36.869Z,100907.72
2022-12-01T01:18:08.298Z,100910.38
2022-12-01T01:18:39.761Z,100907.72
2022-12-01T01:19:11.234Z,100906.00
2022-12-01T01:19:42.614Z,100911.09
2022-12-01T01:20:14.138Z,100909.66
2022-12-01T01:20:45.523Z,100906.16
2022-12-01T01:21:17.564Z,100909.66
2022-12-01T01:21:49.018Z,100913.03
2022-12-01T01:22:20.498Z,100907.72
2022-12-01T01:22:51.989Z,100906.00
2022-12-01T01:23:23.411Z,100911.22
2022-12-01T01:23:54.951Z,100909.53
2022-12-01T01:24:26.371Z,100910.38
2022-12-01T01:24:57.845Z,100910.50
2022-12-01T01:25:29.297Z,100914.25
2022-12-01T01:26:01.580Z,100909.66
2022-12-01T01:26:33.050Z,100910.50
2022-12-01T01:27:04.549Z,100913.28
2022-12-01T01:27:35.976Z,100915.00
2022-12-01T01:28:07.385Z,100906.25
2022-12-01T01:28:38.894Z,100909.78
2022-12-01T01:29:10.347Z,100917.88
2022-12-01T01:29:41.780Z,100910.59
2022-12-01T01:30:13.409Z,100918.59
2022-12-01T01:30:45.024Z,100914.16
2022-12-01T01:31:17.760Z,100912.31
2022-12-01T01:31:49.331Z,100913.16
2022-12-01T01:32:20.827Z,100915.81
2022-12-01T01:32:52.274Z,100917.88
2022-12-01T01:33:23.833Z,100916.28
2022-12-01T01:33:55.651Z,100920.53
2022-12-01T01:34:27.107Z,100917.03
2022-12-01T01:34:58.627Z,100912.44
2022-12-01T01:35:30.131Z,100924.91
2022-12-01T01:36:01.754Z,100922.97
2022-12-01T01:36:35.982Z,100922.00
2022-12-01T01:37:07.448Z,100919.47
2022-12-01T01:37:39.105Z,100918.50
2022-12-01T01:38:10.573Z,100920.31
2022-12-01T01:38:42.120Z,100923.94
2022-12-01T01:39:13.614Z,100925.75
2022-12-01T01:39:45.106Z,100925.66
2022-12-01T01:40:16.709Z,100922.25
2022-12-01T01:40:48.247Z,100924.16
2022-12-01T01:41:19.828Z,100925.88
2022-12-01T01:41:51.359Z,100923.22
2022-12-01T01:42:22.883Z,100923.94
2022-12-01T01:42:54.402Z,100918.59
2022-12-01T01:43:37.845Z,100921.16
2022-12-01T01:44:27.856Z,100918.00
2022-12-01T01:44:59.339Z,100924.28
2022-12-01T01:45:30.906Z,100923.09
2022-12-01T01:46:02.419Z,100921.88
2022-12-01T01:46:34.212Z,100920.94
2022-12-01T01:47:05.770Z,100928.19
2022-12-01T01:47:37.226Z,100925.66
2022-12-01T01:48:09.056Z,100917.66
2022-12-01T01:48:40.670Z,100919.47
2022-12-01T01:49:12.548Z,100919.34
2022-12-01T01:49:44.054Z,100920.31
2022-12-01T01:50:17.535Z,100922.25
2022-12-01T01:50:48.961Z,100926.72
2022-12-01T01:51:25.781Z,100924.41
2022-12-01T01:51:57.273Z,100921.28
2022-12-01T01:52:28.755Z,100921.16
2022-12-01T01:53:04.072Z,100922.16
2022-12-01T01:53:35.686Z,100918.59
2022-12-01T01:54:14.392Z,100919.47
2022-12-01T01:54:47.836Z,100921.38
2022-12-01T01:55:19.325Z,100916.06
2022-12-01T01:55:50.815Z,100921.63
2022-12-01T01:56:22.520Z,100927.59
2022-12-01T01:56:54.043Z,100921.38
2022-12-01T01:57:31.855Z,100929.50
2022-12-01T01:58:04.444Z,100918.59
2022-12-01T01:58:36.431Z,100923.94
2022-12-01T01:59:07.920Z,100925.88
2022-12-01T01:59:40.799Z,100925.88
2022-12-01T02:00:15.360Z,100923.31
2022-12-01T02:00:46.857Z,100917.88
2022-12-01T02:01:18.385Z,100923.44
2022-12-01T02:01:52.866Z,100925.16
2022-12-01T02:02:24.382Z,100921.63
2022-12-01T02:02:56.252Z,100924.06
2022-12-01T02:03:27.883Z,100922.25
2022-12-01T02:03:59.384Z,100921.16
2022-12-01T02:04:30.874Z,100922.25
2022-12-01T02:05:02.507Z,100922.97
2022-12-01T02:05:34.065Z,100925.66
2022-12-01T02:06:06.192Z,100921.16
2022-12-01T02:06:37.613Z,100927.47
2022-12-01T02:07:09.157Z,100924.91
2022-12-01T02:07:40.949Z,100919.59
2022-12-01T02:08:12.529Z,100924.06
2022-12-01T02:08:44.010Z,100917.88
2022-12-01T02:09:15.469Z,100914.50
2022-12-01T02:09:47.177Z,100920.53
2022-12-01T02:10:18.911Z,100922.00
2022-12-01T02:11:05.206Z,100924.81
2022-12-01T02:11:43.758Z,100922.00
2022-12-01T02:12:38.119Z,100920.31
2022-12-01T02:13:17.533Z,100922.00
2022-12-01T02:13:56.627Z,100919.47
2022-12-01T02:14:31.028Z,100922.00
2022-12-01T02:15:02.547Z,100912.22
2022-12-01T02:15:38.106Z,100916.94
2022-12-01T02:16:18.624Z,100918.59
2022-12-01T02:16:53.161Z,100918.84
2022-12-01T02:17:29.264Z,100919.19
2022-12-01T02:18:00.669Z,100918.94
2022-12-01T02:18:42.778Z,100915.66
2022-12-01T02:19:32.535Z,100918.00
2022-12-01T02:20:09.742Z,100917.16
2022-12-01T02:20:50.042Z,100917.16
2022-12-01T02:21:44.359Z,100918.59
2022-12-01T02:22:24.814Z,100919.34
2022-12-01T02:23:14.933Z,100923.09
2022-12-01T02:23:55.827Z,100924.81
2022-12-01T02:24:45.829Z,100919.22
2022-12-01T02:25:21.181Z,100921.63
2022-12-01T02:26:11.118Z,100910.84
2022-12-01T02:26:48.322Z,100911.59
2022-12-01T02:27:22.649Z,100917.88
2022-12-01T02:28:07.487Z,100920.53
2022-12-01T02:28:43.865Z,100915.94
2022-12-01T02:29:27.132Z,100916.66
2022-12-01T02:29:58.664Z,100920.31
2022-12-01T02:30:37.826Z,100913.28
2022-12-01T02:31:27.778Z,100915.00
2022-12-01T02:32:11.893Z,100910.72
2022-12-01T02:32:45.923Z,100914.38
2022-12-01T02:33:26.120Z,100916.94
2022-12-01T02:33:58.662Z,100913.38
2022-12-01T02:34:31.254Z,100907.72
2022-12-01T02:35:02.716Z,100909.66
2022-12-01T02:35:36.639Z,100915.81
2022-12-01T02:36:37.433Z,100910.38
2022-12-01T02:37:18.193Z,100911.47
2022-12-01T02:38:04.593Z,100913.28
2022-12-01T02:38:51.403Z,100909.88
2022-12-01T02:39:29.181Z,100915.09
2022-12-01T02:40:06.416Z,100911.59
2022-12-01T02:40:40.091Z,100914.16
2022-12-01T02:42:32.045Z,100910.72
2022-12-01T02:43:32.979Z,100914.16
2022-12-01T02:44:24.806Z,100909.88
2022-12-01T02:45:19.840Z,100910.13
2022-12-01T02:46:04.038Z,100910.84
2022-12-01T02:46:54.046Z,100904.66
2022-12-01T02:47:50.767Z,100904.56
2022-12-01T02:48:41.092Z,100919.47
2022-12-01T02:49:34.262Z,100910.50
2022-12-01T02:50:27.535Z,100911.34
2022-12-01T02:51:23.076Z,100911.34
2022-12-01T02:52:13.771Z,100907.94
2022-12-01T02:53:08.844Z,100909.66
2022-12-01T02:54:02.135Z,100913.28
2022-12-01T02:54:55.110Z,100917.66
2022-12-01T02:55:47.009Z,100909.66
2022-12-01T02:56:41.295Z,100915.00
2022-12-01T02:57:33.358Z,100921.03
2022-12-01T02:58:36.861Z,100916.81
2022-12-01T02:59:27.555Z,100919.34
2022-12-01T03:00:16.475Z,100924.91
2022-12-01T03:01:01.143Z,100924.81
2022-12-01T03:01:46.510Z,100915.94
2022-12-01T03:02:45.855Z,100913.28
2022-12-01T03:03:55.924Z,100913.28
2022-12-01T03:05:04.117Z,100922.25
2022-12-01T03:05:58.675Z,100914.00
2022-12-01T03:07:06.037Z,100911.34
2022-12-01T03:08:15.059Z,100917.44
2022-12-01T03:09:10.519Z,100915.72
2022-12-01T03:10:19.914Z,100913.03
2022-12-01T03:11:13.784Z,100913.38
2022-12-01T03:12:12.297Z,100917.53
2022-12-01T03:13:17.648Z,100917.75
2022-12-01T03:14:28.153Z,100917.88
2022-12-01T03:15:15.210Z,100910.50
2022-12-01T03:16:12.717Z,100918.59
2022-12-01T03:17:07.673Z,100918.59
2022-12-01T03:17:59.089Z,100915.09
2022-12-01T03:18:42.284Z,100915.94
2022-12-01T03:19:43.903Z,100916.66
2022-12-01T03:20:31.988Z,100918.59
2022-12-01T03:21:21.490Z,100922.88
2022-12-01T03:22:12.964Z,100915.00
2022-12-01T03:23:11.686Z,100915.94
2022-12-01T03:24:01.318Z,100922.00
2022-12-01T03:24:52.343Z,100918.84
2022-12-01T03:25:44.915Z,100917.16
2022-12-01T03:26:37.356Z,100924.91
2022-12-01T03:27:27.844Z,100921.28
2022-12-01T03:28:25.273Z,100919.34
2022-12-01T03:29:29.341Z,100918.50
2022-12-01T03:30:21.484Z,100915.81
2022-12-01T03:31:12.967Z,100915.81
2022-12-01T03:32:09.730Z,100916.94
2022-12-01T03:33:07.480Z,100918.00
2022-12-01T03:34:00.350Z,100918.72
2022-12-01T03:34:54.864Z,100921.28
2022-12-01T03:36:01.601Z,100910.59
2022-12-01T03:36:53.362Z,100920.53
2022-12-01T03:37:43.152Z,100918.94
2022-12-01T03:38:35.845Z,100922.59
2022-12-01T03:39:27.417Z,100918.84
2022-12-01T03:40:18.397Z,100922.25
2022-12-01T03:42:19.057Z,100919.81
2022-12-01T03:43:13.854Z,100918.44
2022-12-01T03:44:05.115Z,100910.94
2022-12-01T03:44:59.424Z,100907.44
2022-12-01T03:47:22.556Z,100907.09
2022-12-01T03:48:30.984Z,100913.28
2022-12-01T03:49:16.950Z,100911.81
2022-12-01T03:50:07.947Z,100917.88
2022-12-01T03:50:57.890Z,100914.16
2022-12-01T03:51:39.694Z,100911.59
2022-12-01T03:52:40.923Z,100916.66
2022-12-01T03:53:42.781Z,100915.81
2022-12-01T03:54:44.406Z,100914.16
2022-12-01T03:55:39.803Z,100909.66
2022-12-01T03:57:33.631Z,100908.81
2022-12-01T03:58:34.226Z,100911.47
2022-12-01T03:59:28.826Z,100923.09
2022-12-01T04:00:19.773Z,100912.66
2022-12-01T04:01:10.996Z,100919.06
2022-12-01T04:02:57.895Z,100909.66
2022-12-01T04:03:52.531Z,100915.09
2022-12-01T04:04:48.549Z,100912.44
2022-12-01T04:05:37.686Z,100911.47
2022-12-01T04:06:28.970Z,100910.50
2022-12-01T04:07:20.339Z,100909.66
2022-12-01T04:08:09.629Z,100910.50
2022-12-01T04:09:00.261Z,100907.22
2022-12-01T04:09:57.403Z,100915.22
2022-12-01T04:11:11.776Z,100915.09
2022-12-01T04:12:00.752Z,100919.72
2022-12-01T04:12:52.663Z,100913.00
2022-12-01T04:13:42.958Z,100915.44
2022-12-01T04:15:37.410Z,100922.50
2022-12-01T04:16:29.009Z,100919.94
2022-12-01T04:17:19.392Z,100920.78
2022-12-01T04:18:09.342Z,100910.13
2022-12-01T04:18:51.585Z,100916.66
2022-12-01T04:19:44.928Z,100914.00
2022-12-01T04:20:36.128Z,100916.94
2022-12-01T04:21:26.444Z,100916.06
2022-12-01T04:22:16.680Z,100919.59
2022-12-01T04:24:30.061Z,100919.34
2022-12-01T04:25:20.437Z,100918.50
2022-12-01T04:26:16.041Z,100915.00
2022-12-01T04:27:02.068Z,100913.28
2022-12-01T04:27:52.770Z,100916.94
2022-12-01T04:29:15.047Z,100914.00
2022-12-01T04:30:10.933Z,100924.66
2022-12-01T04:30:58.948Z,100915.81
2022-12-01T04:31:49.609Z,100922.00
2022-12-01T04:32:37.768Z,100917.53
2022-12-01T04:33:28.698Z,100918.38
2022-12-01T04:34:19.603Z,100919.47
2022-12-01T04:35:14.045Z,100915.59
2022-12-01T04:36:10.905Z,100913.03
2022-12-01T04:37:01.333Z,100919.22
2022-12-01T04:37:53.424Z,100910.25
2022-12-01T04:38:43.257Z,100915.72
2022-12-01T04:39:35.344Z,100915.72
2022-12-01T04:40:31.143Z,100912.56
2022-12-01T04:41:17.167Z,100910.84
2022-12-01T04:42:06.082Z,100921.28
2022-12-01T04:43:28.815Z,100918.84
2022-12-01T04:44:19.169Z,100919.06
2022-12-01T04:45:09.013Z,100915.22
2022-12-01T04:46:02.019Z,100913.28
2022-12-01T04:46:52.205Z,100918.59
2022-12-01T04:47:41.809Z,100915.81
2022-12-01T04:49:26.031Z,100918.38
2022-12-01T04:50:16.210Z,100921.16
2022-12-01T04:51:10.861Z,100913.50
2022-12-01T04:53:17.814Z,100918.84
2022-12-01T04:54:16.892Z,100915.00
2022-12-01T04:55:06.373Z,100913.03
2022-12-01T04:55:59.645Z,100912.22
2022-12-01T04:56:50.833Z,100913.16
2022-12-01T04:57:41.396Z,100914.16
2022-12-01T04:58:29.372Z,100918.38
2022-12-01T04:59:19.340Z,100917.66
2022-12-01T05:00:09.974Z,100918.72
2022-12-01T05:01:05.577Z,100916.94
2022-12-01T05:01:54.318Z,100915.94
2022-12-01T05:02:44.832Z,100922.88
2022-12-01T05:03:33.996Z,100925.41
2022-12-01T05:05:33.550Z,100917.88
2022-12-01T05:06:28.654Z,100918.84
2022-12-01T05:07:18.218Z,100915.94
2022-12-01T05:08:09.165Z,100915.00
2022-12-01T05:08:59.494Z,100914.88
2022-12-01T05:09:49.618Z,100922.75
2022-12-01T05:10:41.509Z,100921.88
2022-12-01T05:11:37.472Z,100915.72
2022-12-01T05:12:28.375Z,100922.75
2022-12-01T05:13:16.317Z,100922.00
2022-12-01T05:14:13.898Z,100918.38
2022-12-01T05:15:04.311Z,100922.97
2022-12-01T05:15:53.436Z,100914.00
2022-12-01T05:16:46.452Z,100920.78
2022-12-01T05:18:37.979Z,100912.31
2022-12-01T05:20:29.630Z,100922.88
2022-12-01T05:21:16.466Z,100916.66
2022-12-01T05:23:31.380Z,100917.44
2022-12-01T05:24:20.343Z,100921.88
2022-12-01T05:25:10.003Z,100929.28
2022-12-01T05:26:00.121Z,100926.38
2022-12-01T05:26:54.507Z,100924.81
2022-12-01T05:27:45.541Z,100925.66
2022-12-01T05:29:39.031Z,100921.03
2022-12-01T05:30:32.450Z,100922.25
2022-12-01T05:31:20.402Z,100921.50
2022-12-01T05:34:34.685Z,100922.00
2022-12-01T05:35:19.517Z,100923.94
2022-12-01T05:36:25.171Z,100922.97
2022-12-01T05:37:19.128Z,100920.31
2022-12-01T05:38:15.942Z,100922.00
2022-12-01T05:39:05.490Z,100929.88
2022-12-01T05:39:50.557Z,100922.00
2022-12-01T05:40:42.890Z,100922.88
2022-12-01T05:41:34.307Z,100922.25
2022-12-01T05:42:24.620Z,100921.38
2022-12-01T05:43:15.220Z,100922.25
2022-12-01T05:44:05.938Z,100916.66
2022-12-01T05:45:09.426Z,100920.31
2022-12-01T05:46:33.885Z,100929.16
2022-12-01T05:47:25.102Z,100926.50
2022-12-01T05:48:10.913Z,100925.66
2022-12-01T05:49:02.550Z,100927.47
2022-12-01T05:49:54.163Z,100925.41
2022-12-01T05:50:42.812Z,100921.28
2022-12-01T05:51:37.448Z,100927.31
2022-12-01T05:52:28.059Z,100938.00
2022-12-01T05:53:17.079Z,100929.03
2022-12-01T05:54:13.706Z,100926.25
2022-12-01T05:55:01.587Z,100930.00
2022-12-01T05:55:47.909Z,100929.78
2022-12-01T05:57:04.582Z,100928.81
2022-12-01T05:57:57.799Z,100921.78
2022-12-01T05:58:54.271Z,100928.81
2022-12-01T05:59:41.475Z,100929.88
2022-12-01T06:00:25.946Z,100929.72
2022-12-01T06:02:33.721Z,100932.38
2022-12-01T06:03:21.528Z,100928.88
2022-12-01T06:04:14.942Z,100934.81
2022-12-01T06:05:05.405Z,100930.59
2022-12-01T06:05:55.745Z,100936.78
2022-12-01T06:06:49.011Z,100935.06
2022-12-01T06:07:39.811Z,100930.38
2022-12-01T06:08:28.127Z,100937.72
2022-12-01T06:09:18.281Z,100928.88
2022-12-01T06:10:08.592Z,100937.22
2022-12-01T06:11:01.040Z,100937.34
2022-12-01T06:11:52.654Z,100934.22
2022-12-01T06:12:39.606Z,100934.31
2022-12-01T06:13:30.855Z,100932.38
2022-12-01T06:14:20.876Z,100935.94
2022-12-01T06:15:10.032Z,100934.00
2022-12-01T06:16:09.980Z,100935.06
2022-12-01T06:17:03.833Z,100934.22
2022-12-01T06:17:53.839Z,100930.09
2022-12-01T06:18:44.461Z,100931.56
2022-12-01T06:20:36.566Z,100936.66
2022-12-01T06:22:30.169Z,100930.25
2022-12-01T06:24:27.348Z,100933.66
2022-12-01T06:25:17.211Z,100935.47
2022-12-01T06:26:10.775Z,100937.25
2022-12-01T06:27:00.896Z,100934.38
2022-12-01T06:27:50.947Z,100941.53
2022-12-01T06:28:39.781Z,100936.09
2022-12-01T06:29:30.082Z,100936.19
2022-12-01T06:30:20.063Z,100937.75
2022-12-01T06:31:14.413Z,100938.97
2022-12-01T06:32:02.792Z,100937.16
2022-12-01T06:32:52.852Z,100938.97
2022-12-01T06:33:43.414Z,100935.47
2022-12-01T06:34:34.395Z,100944.53
2022-12-01T06:35:25.265Z,100941.88
2022-12-01T06:36:22.577Z,100938.97
2022-12-01T06:37:12.339Z,100942.38
2022-12-01T06:38:03.148Z,100938.88
2022-12-01T06:38:54.386Z,100939.81
2022-12-01T06:39:41.433Z,100934.59
2022-12-01T06:40:33.208Z,100938.88
2022-12-01T06:41:17.519Z,100938.00
2022-12-01T06:43:29.041Z,100940.81
2022-12-01T06:44:19.198Z,100939.72
2022-12-01T06:45:10.010Z,100939.72
2022-12-01T06:46:02.055Z,100934.47
2022-12-01T06:46:57.251Z,100943.31
2022-12-01T06:47:46.483Z,100944.19
2022-12-01T06:48:34.956Z,100945.03
2022-12-01T06:49:27.064Z,100945.03
2022-12-01T06:50:31.701Z,100952.06
2022-12-01T06:51:21.336Z,100955.69
2022-12-01T06:54:33.970Z,100949.31
2022-12-01T06:55:22.544Z,100954.97
2022-12-01T06:56:09.859Z,100953.16
2022-12-01T06:58:20.110Z,100950.59
2022-12-01T06:59:10.382Z,100953.25
2022-12-01T07:00:01.163Z,100952.31
2022-12-01T07:00:52.427Z,100955.81
2022-12-01T07:01:42.225Z,100952.31
2022-12-01T07:02:36.895Z,100959.31
2022-12-01T07:03:26.799Z,100958.59
2022-12-01T07:04:18.415Z,100956.66
2022-12-01T07:05:08.133Z,100959.31
2022-12-01T07:07:14.777Z,100961.97
2022-12-01T07:08:02.854Z,100965.63
2022-12-01T07:08:53.911Z,100968.31
2022-12-01T07:09:43.678Z,100964.66
2022-12-01T07:10:34.887Z,100958.38
2022-12-01T07:12:28.319Z,100963.69
2022-12-01T07:13:15.709Z,100966.13
2022-12-01T07:14:18.659Z,100955.47
2022-12-01T07:15:09.669Z,100957.41
2022-12-01T07:16:04.922Z,100961.03
2022-12-01T07:16:52.848Z,100961.75
2022-12-01T07:17:46.551Z,100961.75
2022-12-01T07:18:41.623Z,100956.53
2022-12-01T07:19:31.459Z,100969.88
2022-12-01T07:20:21.565Z,100971.81
2022-12-01T07:21:13.983Z,100969.03
2022-12-01T07:22:04.595Z,100971.56
2022-12-01T07:23:14.002Z,100975.19
2022-12-01T07:24:04.432Z,100976.06
2022-12-01T07:24:53.146Z,100975.97
2022-12-01T07:25:41.974Z,100972.41
2022-12-01T07:26:31.647Z,100970.75
2022-12-01T07:27:24.431Z,100980.53
2022-12-01T07:28:14.210Z,100980.41
2022-12-01T07:29:05.351Z,100973.41
2022-12-01T07:29:57.931Z,100972.53
2022-12-01T07:30:48.319Z,100975.09
2022-12-01T07:31:37.714Z,100975.97
2022-12-01T07:32:29.825Z,100974.25
2022-12-01T07:33:19.457Z,100980.41
2022-12-01T07:34:15.717Z,100973.41
2022-12-01T07:35:04.771Z,100974.38
2022-12-01T07:35:55.053Z,100974.47
2022-12-01T07:36:44.321Z,100979.56
2022-12-01T07:37:37.407Z,100975.84
2022-12-01T07:38:27.363Z,100976.91
2022-12-01T07:39:18.173Z,100974.25
2022-12-01T07:40:07.561Z,100973.41
2022-12-01T07:40:57.996Z,100976.81
2022-12-01T07:42:16.193Z,100975.97
2022-12-01T07:42:47.532Z,100976.81
2022-12-01T07:43:18.805Z,100975.09
2022-12-01T07:43:50.109Z,100978.63
2022-12-01T07:44:21.391Z,100976.91
2022-12-01T07:44:52.666Z,100971.69
2022-12-01T07:45:23.954Z,100975.97
2022-12-01T07:45:55.269Z,100977.03
2022-12-01T07:46:26.903Z,100979.31
2022-12-01T07:46:58.193Z,100976.31
2022-12-01T07:47:29.461Z,100974.47
2022-12-01T07:48:00.741Z,100977.03
2022-12-01T07:48:32.208Z,100980.66
2022-12-01T07:49:05.532Z,100977.03
2022-12-01T07:49:37.741Z,100975.09
2022-12-01T07:50:09.495Z,100975.19
2022-12-01T07:50:41.117Z,100985.75
2022-12-01T07:51:13.513Z,100979.47
2022-12-01T07:51:45.142Z,100975.09
2022-12-01T07:52:18.058Z,100977.88
2022-12-01T07:52:50.129Z,100976.06
2022-12-01T07:53:21.777Z,100979.56
2022-12-01T07:53:53.560Z,100976.06
2022-12-01T07:54:25.174Z,100976.91
2022-12-01T07:54:56.704Z,100980.53
2022-12-01T07:55:28.332Z,100975.31
2022-12-01T07:56:02.084Z,100977.13
2022-12-01T07:56:37.254Z,100975.31
2022-12-01T07:57:08.799Z,100983.19
2022-12-01T07:57:40.335Z,100973.53
2022-12-01T07:58:11.958Z,100981.53
2022-12-01T07:58:43.559Z,100974.47
2022-12-01T07:59:15.195Z,100985.75
2022-12-01T07:59:46.930Z,100983.19
2022-12-01T08:00:18.819Z,100983.19
2022-12-01T08:00:50.384Z,100982.34
2022-12-01T08:01:22.484Z,100991.09
2022-12-01T08:01:54.132Z,100989.41
2022-12-01T08:02:25.795Z,100987.47
2022-12-01T08:02:57.548Z,100980.31
2022-12-01T08:03:29.245Z,100984.06
2022-12-01T08:04:00.879Z,100975.97
2022-12-01T08:04:32.542Z,100987.56
2022-12-01T08:05:04.189Z,100990.25
2022-12-01T08:05:35.756Z,100987.69
2022-12-01T08:06:07.503Z,100989.50
2022-12-01T08:06:39.081Z,100982.34
2022-12-01T08:07:10.621Z,100984.28
2022-12-01T08:07:42.307Z,100981.53
2022-12-01T08:08:13.944Z,100989.41
2022-12-01T08:08:45.658Z,100985.13
2022-12-01T08:09:17.277Z,100986.97
2022-12-01T08:09:49.291Z,100985.97
2022-12-01T08:10:21.082Z,100988.78
2022-12-01T08:10:52.827Z,100984.28
2022-12-01T08:11:25.217Z,100990.47
2022-12-01T08:11:56.841Z,100985.97
2022-12-01T08:12:28.435Z,100984.28
2022-12-01T08:13:00.056Z,100988.63
2022-12-01T08:13:31.627Z,100992.19
2022-12-01T08:14:03.556Z,100989.41
2022-12-01T08:14:35.150Z,100985.97
2022-12-01T08:15:06.959Z,100996.63
2022-12-01T08:15:38.934Z,100990.47
2022-12-01T08:16:11.761Z,100991.31
2022-12-01T08:16:43.465Z,100993.63
2022-12-01T08:17:15.129Z,100991.97
2022-12-01T08:17:46.729Z,100993.97
2022-12-01T08:18:18.312Z,100990.59
2022-12-01T08:18:49.926Z,100996.03
2022-12-01T08:19:21.613Z,100991.56
2022-12-01T08:19:53.137Z,100992.41
2022-12-01T08:20:24.726Z,100999.78
2022-12-01T08:20:56.717Z,101001.97
2022-12-01T08:21:28.276Z,100996.91
2022-12-01T08:21:59.852Z,101002.13
2022-12-01T08:22:31.535Z,100999.44
2022-12-01T08:23:03.212Z,100998.56
2022-12-01T08:23:34.846Z,100996.91
2022-12-01T08:24:06.667Z,101005.84
2022-12-01T08:24:38.463Z,100993.69
2022-12-01T08:25:10.241Z,101003.50
2022-12-01T08:25:41.863Z,101007.13
2022-12-01T08:26:14.578Z,100998.81
2022-12-01T08:26:46.154Z,100997.97
2022-12-01T08:27:17.738Z,101008.50
2022-12-01T08:27:49.341Z,100997.75